LDZALDZD

Guest
Details From LDZA - Zagreb
To LDZD - ZADAR
Flight Number -
Tags generated
Created
Modified
Stats Distance 103 nm / 192 km
Max Altitude 6,300 ft / 1,920 m
Waypoints 3
Social Downloads 7
Likes 0
Share VATSIM

Download

Looking for another format? Having issues loading an existing format? Contact us
Advertisement - Login to hide

Notes

Basic altitude profile: - Ascent Rate: 2500ft/min - Ascent Speed: 250kts - Cruise Altitude: 35000ft - Cruise Speed: 420kts - Descent Rate: 1500ft/min - Descent Speed: 250kts Options: - Use NATs: yes - Use PACOTS: yes - Use low airways: yes - Use high airways: yes

Route

LDZA PALEZ LDZD

ID Type Via Altitude Latitude Longitude Leg Dist Tot Dist Heading (true) Name
O LDZA APT - 0 ft / 0 m 45.74189˚ 16.06720˚ - 0 nm - Zagreb
PALEZ FIX - 6,300 ft / 1,920 m 44.57500˚ 15.53306˚ 73 nm 73 nm 198° / 198° -
O LDZD APT - 0 ft / 0 m 44.09723˚ 15.34798˚ 29 nm 103 nm 196° / 195° ZADAR

Altitude Profile

Advertisement - Login to hide

LDZA

Details ICAO LDZA (ZAG)
Name Zagreb
Region Croatia
Timezone Europe/Zagreb (UTC+2.0)
Stats Elevation 353 ft / 108 m (AMSL)
Location 45.741890° 16.067200°
Runways 1
Magnetic Variation 4.009° E

METAR

LDZA 251630Z 02003KT 320V110 9999 -RA FEW025 19/16 Q1017 RETSRA NOSIG

Decode

TAF

TAF LDZA 251125Z 2512/2612 01006KT 9999 SCT030 TX25/2514Z TN15/2604Z PROB40 TEMPO 2512/2521 32015G25KT 4000 TSRA FEW025CB BKN030 PROB30 TEMPO 2602/2606 1500 BCFG PROB30 TEMPO 2608/2612 SHRA SCT030TCU

Decode

Departure Runways

ID Width Length Bearing (true) Bearing (mag) Surface Threshold Offset Overrun Length
05 148 ft / 45 m 10,659 ft / 3,249 m 46.69° 42.68° Asphalt 0 ft / 0 m 195 ft / 59 m
23 148 ft / 45 m 10,659 ft / 3,249 m 226.71° 222.70° Asphalt 0 ft / 0 m 195 ft / 59 m

LDZD

Details ICAO LDZD (ZAD)
Name ZADAR
Region Croatia
Timezone Europe/Zagreb (UTC+2.0)
Stats Elevation 289 ft / 88 m (AMSL)
Location 44.097225° 15.347978°
Runways 2
Magnetic Variation 3.750° E

METAR

LDZD 251630Z 31009KT 280V340 9999 FEW040 25/18 Q1014 NOSIG

Decode

TAF

TAF LDZD 251126Z 2512/2612 30009KT 9999 FEW040 TX28/2611Z TN16/2604Z PROB30 TEMPO 2512/2515 TS FEW033CB BECMG 2516/2518 VRB02KT PROB30 TEMPO 2602/2604 3000 MIFG

Decode

Destination Runways

ID Width Length Bearing (true) Bearing (mag) Surface Threshold Offset Overrun Length
04 147 ft / 45 m 6,519 ft / 1,987 m 41.52° 37.77° Asphalt 0 ft / 0 m 0 ft / 0 m
14 147 ft / 45 m 8,159 ft / 2,487 m 135.79° 132.04° Asphalt 0 ft / 0 m 0 ft / 0 m
22 147 ft / 45 m 6,519 ft / 1,987 m 221.53° 217.78° Asphalt 0 ft / 0 m 0 ft / 0 m
32 147 ft / 45 m 8,159 ft / 2,487 m 315.81° 312.06° Asphalt 0 ft / 0 m 0 ft / 0 m

Approach Navaids

Runway Type Ident Frequency Range Bearing (true) Bearing (mag) Slope Elevation
14 Localiser IZD 110.10 MHz 25 nm / 46 km 135.69° 131.94° - 246 ft / 75 m (AMSL)
14 Glidescope IZD 110.10 MHz 25 nm / 46 km 135.69° 131.94° 3.00° 236 ft / 72 m (AMSL)

Popular Alternatives